sensor_id;sensor_type;location;lat;lon;timestamp;P1;durP1;ratioP1;P2;durP2;ratioP2
52508;SDS011;38420;53.150;6.370;2022-10-16T00:00:34;7.38;;;2.08;;
52508;SDS011;38420;53.150;6.370;2022-10-16T00:03:01;5.32;;;2.10;;
52508;SDS011;38420;53.150;6.370;2022-10-16T00:05:28;11.60;;;2.35;;
52508;SDS011;38420;53.150;6.370;2022-10-16T00:07:53;8.48;;;2.03;;
52508;SDS011;38420;53.150;6.370;2022-10-16T00:10:19;6.70;;;3.03;;
52508;SDS011;38420;53.150;6.370;2022-10-16T00:12:45;10.90;;;2.33;;
52508;SDS011;38420;53.150;6.370;2022-10-16T00:15:11;7.55;;;2.20;;
52508;SDS011;38420;53.150;6.370;2022-10-16T00:17:36;7.25;;;2.47;;
52508;SDS011;38420;53.150;6.370;2022-10-16T00:20:02;7.82;;;2.10;;
52508;SDS011;38420;53.150;6.370;2022-10-16T00:22:28;7.00;;;2.50;;
52508;SDS011;38420;53.150;6.370;2022-10-16T00:24:53;6.13;;;2.30;;
52508;SDS011;38420;53.150;6.370;2022-10-16T00:27:19;7.95;;;2.40;;
52508;SDS011;38420;53.150;6.370;2022-10-16T00:29:45;7.55;;;2.22;;
52508;SDS011;38420;53.150;6.370;2022-10-16T00:32:18;5.45;;;2.28;;
52508;SDS011;38420;53.150;6.370;2022-10-16T00:34:44;4.82;;;2.00;;
52508;SDS011;38420;53.150;6.370;2022-10-16T00:37:10;5.30;;;2.13;;
52508;SDS011;38420;53.150;6.370;2022-10-16T00:39:36;9.02;;;2.17;;
52508;SDS011;38420;53.150;6.370;2022-10-16T00:42:01;8.57;;;2.55;;
52508;SDS011;38420;53.150;6.370;2022-10-16T00:47:34;8.30;;;1.92;;
52508;SDS011;38420;53.150;6.370;2022-10-16T00:50:27;5.60;;;1.80;;
52508;SDS011;38420;53.150;6.370;2022-10-16T00:52:56;9.95;;;2.30;;
52508;SDS011;38420;53.150;6.370;2022-10-16T00:55:23;6.50;;;2.13;;
52508;SDS011;38420;53.150;6.370;2022-10-16T00:57:50;7.47;;;2.38;;
52508;SDS011;38420;53.150;6.370;2022-10-16T01:00:21;7.95;;;1.90;;
52508;SDS011;38420;53.150;6.370;2022-10-16T01:02:52;10.05;;;2.17;;
52508;SDS011;38420;53.150;6.370;2022-10-16T01:07:53;8.30;;;2.10;;
52508;SDS011;38420;53.150;6.370;2022-10-16T01:13:09;6.28;;;1.98;;
52508;SDS011;38420;53.150;6.370;2022-10-16T01:21:16;8.35;;;2.13;;
52508;SDS011;38420;53.150;6.370;2022-10-16T01:23:54;5.05;;;1.85;;
52508;SDS011;38420;53.150;6.370;2022-10-16T01:29:26;4.93;;;1.60;;
52508;SDS011;38420;53.150;6.370;2022-10-16T01:32:00;6.50;;;1.92;;
52508;SDS011;38420;53.150;6.370;2022-10-16T01:34:32;5.53;;;2.67;;
52508;SDS011;38420;53.150;6.370;2022-10-16T01:37:22;7.65;;;2.00;;
52508;SDS011;38420;53.150;6.370;2022-10-16T01:39:58;7.63;;;2.20;;
52508;SDS011;38420;53.150;6.370;2022-10-16T01:42:32;3.53;;;1.65;;
52508;SDS011;38420;53.150;6.370;2022-10-16T01:45:01;4.50;;;1.67;;
52508;SDS011;38420;53.150;6.370;2022-10-16T01:47:31;4.43;;;1.77;;
52508;SDS011;38420;53.150;6.370;2022-10-16T01:49:59;8.93;;;2.25;;
52508;SDS011;38420;53.150;6.370;2022-10-16T01:52:27;7.70;;;2.28;;
52508;SDS011;38420;53.150;6.370;2022-10-16T01:54:54;7.32;;;2.20;;
52508;SDS011;38420;53.150;6.370;2022-10-16T01:57:22;4.13;;;2.13;;
52508;SDS011;38420;53.150;6.370;2022-10-16T01:59:52;6.22;;;2.38;;
52508;SDS011;38420;53.150;6.370;2022-10-16T02:02:21;5.57;;;1.80;;
52508;SDS011;38420;53.150;6.370;2022-10-16T02:04:55;6.60;;;1.77;;
52508;SDS011;38420;53.150;6.370;2022-10-16T02:07:29;7.75;;;1.98;;
52508;SDS011;38420;53.150;6.370;2022-10-16T02:09:55;8.25;;;2.22;;
52508;SDS011;38420;53.150;6.370;2022-10-16T02:12:28;4.47;;;2.47;;
52508;SDS011;38420;53.150;6.370;2022-10-16T02:14:57;5.50;;;1.95;;
52508;SDS011;38420;53.150;6.370;2022-10-16T02:17:22;3.47;;;1.95;;
52508;SDS011;38420;53.150;6.370;2022-10-16T02:19:49;6.03;;;2.10;;
52508;SDS011;38420;53.150;6.370;2022-10-16T02:22:36;7.72;;;1.80;;
52508;SDS011;38420;53.150;6.370;2022-10-16T02:25:15;5.60;;;2.00;;
52508;SDS011;38420;53.150;6.370;2022-10-16T02:30:41;4.30;;;2.03;;
52508;SDS011;38420;53.150;6.370;2022-10-16T02:33:10;4.43;;;1.83;;
52508;SDS011;38420;53.150;6.370;2022-10-16T02:35:38;5.07;;;2.40;;
52508;SDS011;38420;53.150;6.370;2022-10-16T02:38:06;5.07;;;2.10;;
52508;SDS011;38420;53.150;6.370;2022-10-16T02:40:34;4.85;;;1.90;;
52508;SDS011;38420;53.150;6.370;2022-10-16T02:43:02;7.55;;;2.00;;
52508;SDS011;38420;53.150;6.370;2022-10-16T02:45:29;4.88;;;1.90;;
52508;SDS011;38420;53.150;6.370;2022-10-16T02:47:56;4.55;;;1.92;;
52508;SDS011;38420;53.150;6.370;2022-10-16T02:50:21;5.30;;;1.95;;
52508;SDS011;38420;53.150;6.370;2022-10-16T02:52:47;3.70;;;2.20;;
52508;SDS011;38420;53.150;6.370;2022-10-16T02:55:13;3.65;;;1.80;;
52508;SDS011;38420;53.150;6.370;2022-10-16T02:57:39;4.75;;;2.00;;
52508;SDS011;38420;53.150;6.370;2022-10-16T03:00:06;4.00;;;1.80;;
52508;SDS011;38420;53.150;6.370;2022-10-16T03:02:36;3.97;;;1.88;;
52508;SDS011;38420;53.150;6.370;2022-10-16T03:05:02;6.40;;;1.60;;
52508;SDS011;38420;53.150;6.370;2022-10-16T03:07:27;6.85;;;1.95;;
52508;SDS011;38420;53.150;6.370;2022-10-16T03:09:53;5.05;;;1.90;;
52508;SDS011;38420;53.150;6.370;2022-10-16T03:12:20;7.28;;;1.77;;
52508;SDS011;38420;53.150;6.370;2022-10-16T03:14:46;5.93;;;1.98;;
52508;SDS011;38420;53.150;6.370;2022-10-16T03:17:12;4.28;;;1.88;;
52508;SDS011;38420;53.150;6.370;2022-10-16T03:19:38;5.60;;;1.85;;
52508;SDS011;38420;53.150;6.370;2022-10-16T03:22:04;5.20;;;1.75;;
52508;SDS011;38420;53.150;6.370;2022-10-16T03:24:29;5.13;;;1.80;;
52508;SDS011;38420;53.150;6.370;2022-10-16T03:26:55;4.35;;;1.80;;
52508;SDS011;38420;53.150;6.370;2022-10-16T03:29:21;4.20;;;1.60;;
52508;SDS011;38420;53.150;6.370;2022-10-16T03:31:46;3.75;;;2.10;;
52508;SDS011;38420;53.150;6.370;2022-10-16T03:34:14;5.65;;;2.03;;
52508;SDS011;38420;53.150;6.370;2022-10-16T03:36:40;5.53;;;1.70;;
52508;SDS011;38420;53.150;6.370;2022-10-16T03:39:05;4.45;;;1.60;;
52508;SDS011;38420;53.150;6.370;2022-10-16T03:41:31;4.75;;;1.73;;
52508;SDS011;38420;53.150;6.370;2022-10-16T03:43:56;4.53;;;1.75;;
52508;SDS011;38420;53.150;6.370;2022-10-16T03:46:22;5.43;;;2.08;;
52508;SDS011;38420;53.150;6.370;2022-10-16T03:48:47;6.85;;;1.85;;
52508;SDS011;38420;53.150;6.370;2022-10-16T03:51:13;6.63;;;1.95;;
52508;SDS011;38420;53.150;6.370;2022-10-16T03:53:39;3.90;;;1.92;;
52508;SDS011;38420;53.150;6.370;2022-10-16T03:56:04;3.22;;;1.67;;
52508;SDS011;38420;53.150;6.370;2022-10-16T03:58:30;4.32;;;2.20;;
52508;SDS011;38420;53.150;6.370;2022-10-16T04:00:56;3.83;;;1.63;;
52508;SDS011;38420;53.150;6.370;2022-10-16T04:03:21;4.65;;;2.08;;
52508;SDS011;38420;53.150;6.370;2022-10-16T04:05:48;3.67;;;2.03;;
52508;SDS011;38420;53.150;6.370;2022-10-16T04:08:13;5.32;;;1.83;;
52508;SDS011;38420;53.150;6.370;2022-10-16T04:10:39;4.30;;;2.00;;
52508;SDS011;38420;53.150;6.370;2022-10-16T04:13:06;5.03;;;2.05;;
52508;SDS011;38420;53.150;6.370;2022-10-16T04:15:32;3.70;;;2.28;;
52508;SDS011;38420;53.150;6.370;2022-10-16T04:17:58;4.93;;;1.95;;
52508;SDS011;38420;53.150;6.370;2022-10-16T04:20:23;3.83;;;1.83;;
52508;SDS011;38420;53.150;6.370;2022-10-16T04:22:49;5.15;;;1.90;;
52508;SDS011;38420;53.150;6.370;2022-10-16T04:25:14;4.72;;;1.77;;
52508;SDS011;38420;53.150;6.370;2022-10-16T04:27:40;3.83;;;2.20;;
52508;SDS011;38420;53.150;6.370;2022-10-16T04:30:06;4.47;;;2.30;;
52508;SDS011;38420;53.150;6.370;2022-10-16T04:32:32;5.30;;;2.40;;
52508;SDS011;38420;53.150;6.370;2022-10-16T04:34:57;5.03;;;2.25;;
52508;SDS011;38420;53.150;6.370;2022-10-16T04:37:26;4.97;;;2.38;;
52508;SDS011;38420;53.150;6.370;2022-10-16T04:39:52;6.82;;;2.30;;
52508;SDS011;38420;53.150;6.370;2022-10-16T04:42:18;7.22;;;2.03;;
52508;SDS011;38420;53.150;6.370;2022-10-16T04:44:44;4.97;;;2.10;;
52508;SDS011;38420;53.150;6.370;2022-10-16T04:47:10;8.57;;;2.30;;
52508;SDS011;38420;53.150;6.370;2022-10-16T04:49:36;6.85;;;2.58;;
52508;SDS011;38420;53.150;6.370;2022-10-16T04:52:01;7.43;;;2.33;;
52508;SDS011;38420;53.150;6.370;2022-10-16T04:54:28;5.30;;;2.20;;
52508;SDS011;38420;53.150;6.370;2022-10-16T04:56:53;5.38;;;2.20;;
52508;SDS011;38420;53.150;6.370;2022-10-16T04:59:19;5.15;;;2.42;;
52508;SDS011;38420;53.150;6.370;2022-10-16T05:01:45;6.35;;;2.92;;
52508;SDS011;38420;53.150;6.370;2022-10-16T05:04:11;4.07;;;2.30;;
52508;SDS011;38420;53.150;6.370;2022-10-16T05:06:37;5.10;;;2.35;;
52508;SDS011;38420;53.150;6.370;2022-10-16T05:09:04;5.90;;;2.95;;
52508;SDS011;38420;53.150;6.370;2022-10-16T05:11:30;5.07;;;2.53;;
52508;SDS011;38420;53.150;6.370;2022-10-16T05:13:56;7.60;;;2.95;;
52508;SDS011;38420;53.150;6.370;2022-10-16T05:16:21;6.10;;;2.55;;
52508;SDS011;38420;53.150;6.370;2022-10-16T05:18:47;6.18;;;2.95;;
52508;SDS011;38420;53.150;6.370;2022-10-16T05:21:13;6.25;;;2.60;;
52508;SDS011;38420;53.150;6.370;2022-10-16T05:23:38;5.05;;;3.30;;
52508;SDS011;38420;53.150;6.370;2022-10-16T05:26:04;5.80;;;2.97;;
52508;SDS011;38420;53.150;6.370;2022-10-16T05:28:30;7.93;;;3.08;;
52508;SDS011;38420;53.150;6.370;2022-10-16T05:30:56;8.82;;;3.05;;
52508;SDS011;38420;53.150;6.370;2022-10-16T05:33:24;8.20;;;2.78;;
52508;SDS011;38420;53.150;6.370;2022-10-16T05:35:51;6.13;;;3.00;;
52508;SDS011;38420;53.150;6.370;2022-10-16T05:38:17;7.95;;;3.20;;
52508;SDS011;38420;53.150;6.370;2022-10-16T05:40:43;9.88;;;2.97;;
52508;SDS011;38420;53.150;6.370;2022-10-16T05:43:16;8.50;;;3.70;;
52508;SDS011;38420;53.150;6.370;2022-10-16T05:45:42;5.43;;;2.80;;
52508;SDS011;38420;53.150;6.370;2022-10-16T05:48:07;5.57;;;3.15;;
52508;SDS011;38420;53.150;6.370;2022-10-16T05:50:33;8.40;;;3.10;;
52508;SDS011;38420;53.150;6.370;2022-10-16T05:52:58;7.53;;;2.90;;
52508;SDS011;38420;53.150;6.370;2022-10-16T05:55:24;7.20;;;3.00;;
52508;SDS011;38420;53.150;6.370;2022-10-16T05:57:50;7.38;;;3.33;;
52508;SDS011;38420;53.150;6.370;2022-10-16T06:00:18;6.78;;;3.17;;
52508;SDS011;38420;53.150;6.370;2022-10-16T06:02:44;5.18;;;2.95;;
52508;SDS011;38420;53.150;6.370;2022-10-16T06:05:09;7.70;;;2.97;;
52508;SDS011;38420;53.150;6.370;2022-10-16T06:07:35;6.55;;;2.90;;
52508;SDS011;38420;53.150;6.370;2022-10-16T06:10:01;9.32;;;3.05;;
52508;SDS011;38420;53.150;6.370;2022-10-16T06:12:27;7.38;;;3.50;;
52508;SDS011;38420;53.150;6.370;2022-10-16T06:14:53;4.07;;;3.15;;
52508;SDS011;38420;53.150;6.370;2022-10-16T06:17:18;6.22;;;3.40;;
52508;SDS011;38420;53.150;6.370;2022-10-16T06:19:44;6.75;;;4.13;;
52508;SDS011;38420;53.150;6.370;2022-10-16T06:22:09;8.05;;;3.88;;
52508;SDS011;38420;53.150;6.370;2022-10-16T06:24:35;5.22;;;3.30;;
52508;SDS011;38420;53.150;6.370;2022-10-16T06:27:01;8.32;;;3.25;;
52508;SDS011;38420;53.150;6.370;2022-10-16T06:29:28;9.07;;;3.67;;
52508;SDS011;38420;53.150;6.370;2022-10-16T06:31:54;5.85;;;3.10;;
52508;SDS011;38420;53.150;6.370;2022-10-16T06:34:19;7.25;;;3.10;;
52508;SDS011;38420;53.150;6.370;2022-10-16T06:36:45;7.63;;;2.78;;
52508;SDS011;38420;53.150;6.370;2022-10-16T06:39:10;7.13;;;3.17;;
52508;SDS011;38420;53.150;6.370;2022-10-16T06:41:36;8.18;;;3.83;;
52508;SDS011;38420;53.150;6.370;2022-10-16T06:44:05;6.93;;;2.88;;
52508;SDS011;38420;53.150;6.370;2022-10-16T06:46:32;7.90;;;2.75;;
52508;SDS011;38420;53.150;6.370;2022-10-16T06:48:57;6.50;;;2.53;;
52508;SDS011;38420;53.150;6.370;2022-10-16T06:51:24;5.30;;;2.47;;
52508;SDS011;38420;53.150;6.370;2022-10-16T06:53:51;7.68;;;2.80;;
52508;SDS011;38420;53.150;6.370;2022-10-16T06:56:19;9.32;;;3.30;;
52508;SDS011;38420;53.150;6.370;2022-10-16T06:58:47;11.15;;;3.15;;
52508;SDS011;38420;53.150;6.370;2022-10-16T07:01:13;6.25;;;2.90;;
52508;SDS011;38420;53.150;6.370;2022-10-16T07:03:40;6.22;;;3.20;;
52508;SDS011;38420;53.150;6.370;2022-10-16T07:06:07;7.85;;;3.00;;
52508;SDS011;38420;53.150;6.370;2022-10-16T07:08:35;5.63;;;2.88;;
52508;SDS011;38420;53.150;6.370;2022-10-16T07:11:03;5.80;;;2.85;;
52508;SDS011;38420;53.150;6.370;2022-10-16T07:13:32;8.80;;;2.60;;
52508;SDS011;38420;53.150;6.370;2022-10-16T07:16:03;7.03;;;2.72;;
52508;SDS011;38420;53.150;6.370;2022-10-16T07:18:33;9.00;;;3.60;;
52508;SDS011;38420;53.150;6.370;2022-10-16T07:23:35;10.13;;;3.17;;
52508;SDS011;38420;53.150;6.370;2022-10-16T07:26:01;7.30;;;3.25;;
52508;SDS011;38420;53.150;6.370;2022-10-16T07:28:27;5.63;;;2.80;;
52508;SDS011;38420;53.150;6.370;2022-10-16T07:30:53;6.75;;;2.88;;
52508;SDS011;38420;53.150;6.370;2022-10-16T07:33:18;9.38;;;2.88;;
52508;SDS011;38420;53.150;6.370;2022-10-16T07:35:50;5.05;;;2.50;;
52508;SDS011;38420;53.150;6.370;2022-10-16T07:38:17;7.13;;;2.95;;
52508;SDS011;38420;53.150;6.370;2022-10-16T07:40:43;7.38;;;2.95;;
52508;SDS011;38420;53.150;6.370;2022-10-16T07:43:09;5.47;;;3.00;;
52508;SDS011;38420;53.150;6.370;2022-10-16T07:45:35;5.10;;;2.83;;
52508;SDS011;38420;53.150;6.370;2022-10-16T07:48:00;9.85;;;3.15;;
52508;SDS011;38420;53.150;6.370;2022-10-16T07:50:26;9.52;;;4.30;;
52508;SDS011;38420;53.150;6.370;2022-10-16T07:52:51;7.35;;;2.97;;
52508;SDS011;38420;53.150;6.370;2022-10-16T07:55:17;8.07;;;3.95;;
52508;SDS011;38420;53.150;6.370;2022-10-16T07:57:43;8.10;;;4.18;;
52508;SDS011;38420;53.150;6.370;2022-10-16T08:00:08;5.43;;;3.40;;
52508;SDS011;38420;53.150;6.370;2022-10-16T08:02:38;8.13;;;3.30;;
52508;SDS011;38420;53.150;6.370;2022-10-16T08:05:05;5.50;;;2.95;;
52508;SDS011;38420;53.150;6.370;2022-10-16T08:07:31;7.80;;;3.47;;
52508;SDS011;38420;53.150;6.370;2022-10-16T08:09:57;6.60;;;4.22;;
52508;SDS011;38420;53.150;6.370;2022-10-16T08:12:23;7.00;;;3.90;;
52508;SDS011;38420;53.150;6.370;2022-10-16T08:14:49;8.85;;;3.70;;
52508;SDS011;38420;53.150;6.370;2022-10-16T08:17:15;4.88;;;2.88;;
52508;SDS011;38420;53.150;6.370;2022-10-16T08:19:44;6.20;;;3.17;;
52508;SDS011;38420;53.150;6.370;2022-10-16T08:22:10;13.43;;;3.38;;
52508;SDS011;38420;53.150;6.370;2022-10-16T08:24:35;5.30;;;2.72;;
52508;SDS011;38420;53.150;6.370;2022-10-16T08:27:02;5.75;;;2.60;;
52508;SDS011;38420;53.150;6.370;2022-10-16T08:29:28;8.85;;;2.53;;
52508;SDS011;38420;53.150;6.370;2022-10-16T08:31:53;7.93;;;2.90;;
52508;SDS011;38420;53.150;6.370;2022-10-16T08:34:19;6.65;;;2.35;;
52508;SDS011;38420;53.150;6.370;2022-10-16T08:36:45;5.70;;;2.00;;
52508;SDS011;38420;53.150;6.370;2022-10-16T08:39:10;8.82;;;2.25;;
52508;SDS011;38420;53.150;6.370;2022-10-16T08:49:40;4.63;;;1.73;;
52508;SDS011;38420;53.150;6.370;2022-10-16T08:52:10;4.30;;;1.50;;
52508;SDS011;38420;53.150;6.370;2022-10-16T08:54:41;5.13;;;1.30;;
52508;SDS011;38420;53.150;6.370;2022-10-16T08:57:21;11.20;;;2.53;;
52508;SDS011;38420;53.150;6.370;2022-10-16T08:59:48;3.95;;;1.80;;
52508;SDS011;38420;53.150;6.370;2022-10-16T09:08:22;8.13;;;2.03;;
52508;SDS011;38420;53.150;6.370;2022-10-16T09:11:10;5.10;;;1.35;;
52508;SDS011;38420;53.150;6.370;2022-10-16T09:14:02;6.63;;;1.40;;
52508;SDS011;38420;53.150;6.370;2022-10-16T09:16:36;4.80;;;1.40;;
52508;SDS011;38420;53.150;6.370;2022-10-16T09:19:20;8.40;;;2.15;;
52508;SDS011;38420;53.150;6.370;2022-10-16T09:22:10;7.63;;;1.80;;
52508;SDS011;38420;53.150;6.370;2022-10-16T09:24:40;5.25;;;1.30;;
52508;SDS011;38420;53.150;6.370;2022-10-16T09:27:08;9.40;;;2.00;;
52508;SDS011;38420;53.150;6.370;2022-10-16T09:29:36;6.63;;;1.60;;
52508;SDS011;38420;53.150;6.370;2022-10-16T09:32:07;7.72;;;1.98;;
52508;SDS011;38420;53.150;6.370;2022-10-16T09:34:40;7.28;;;1.80;;
52508;SDS011;38420;53.150;6.370;2022-10-16T09:37:12;5.53;;;1.67;;
52508;SDS011;38420;53.150;6.370;2022-10-16T09:39:45;8.48;;;1.90;;
52508;SDS011;38420;53.150;6.370;2022-10-16T09:42:18;11.68;;;2.45;;
52508;SDS011;38420;53.150;6.370;2022-10-16T09:44:51;10.57;;;2.22;;
52508;SDS011;38420;53.150;6.370;2022-10-16T09:47:19;10.75;;;2.00;;
52508;SDS011;38420;53.150;6.370;2022-10-16T09:49:54;10.73;;;2.05;;
52508;SDS011;38420;53.150;6.370;2022-10-16T09:52:23;10.20;;;2.03;;
52508;SDS011;38420;53.150;6.370;2022-10-16T09:54:50;11.60;;;2.13;;
52508;SDS011;38420;53.150;6.370;2022-10-16T09:57:17;13.98;;;2.38;;
52508;SDS011;38420;53.150;6.370;2022-10-16T09:59:50;8.95;;;2.00;;
52508;SDS011;38420;53.150;6.370;2022-10-16T10:02:25;10.00;;;2.13;;
52508;SDS011;38420;53.150;6.370;2022-10-16T10:07:56;13.43;;;3.05;;
52508;SDS011;38420;53.150;6.370;2022-10-16T10:10:29;10.68;;;2.47;;
52508;SDS011;38420;53.150;6.370;2022-10-16T10:12:57;12.30;;;2.15;;
52508;SDS011;38420;53.150;6.370;2022-10-16T10:15:23;11.05;;;2.25;;
52508;SDS011;38420;53.150;6.370;2022-10-16T10:17:55;15.02;;;2.40;;
52508;SDS011;38420;53.150;6.370;2022-10-16T10:20:26;12.73;;;2.03;;
52508;SDS011;38420;53.150;6.370;2022-10-16T10:23:01;14.35;;;2.53;;
52508;SDS011;38420;53.150;6.370;2022-10-16T10:26:02;10.02;;;2.17;;
52508;SDS011;38420;53.150;6.370;2022-10-16T10:31:07;16.67;;;2.45;;
52508;SDS011;38420;53.150;6.370;2022-10-16T10:33:54;9.07;;;1.70;;
52508;SDS011;38420;53.150;6.370;2022-10-16T10:36:34;11.68;;;3.20;;
52508;SDS011;38420;53.150;6.370;2022-10-16T10:39:13;11.10;;;2.10;;
52508;SDS011;38420;53.150;6.370;2022-10-16T10:41:53;12.98;;;2.95;;
52508;SDS011;38420;53.150;6.370;2022-10-16T10:44:26;15.38;;;2.60;;
52508;SDS011;38420;53.150;6.370;2022-10-16T10:46:57;10.93;;;2.42;;
52508;SDS011;38420;53.150;6.370;2022-10-16T10:49:51;11.65;;;2.03;;
52508;SDS011;38420;53.150;6.370;2022-10-16T11:06:10;12.77;;;2.10;;
52508;SDS011;38420;53.150;6.370;2022-10-16T11:08:52;17.73;;;3.13;;
52508;SDS011;38420;53.150;6.370;2022-10-16T11:11:25;13.70;;;3.00;;
52508;SDS011;38420;53.150;6.370;2022-10-16T11:14:05;13.20;;;3.00;;
52508;SDS011;38420;53.150;6.370;2022-10-16T11:16:46;11.50;;;2.35;;
52508;SDS011;38420;53.150;6.370;2022-10-16T11:19:18;10.35;;;2.72;;
52508;SDS011;38420;53.150;6.370;2022-10-16T11:27:08;12.25;;;2.17;;
52508;SDS011;38420;53.150;6.370;2022-10-16T11:29:43;12.18;;;2.75;;
52508;SDS011;38420;53.150;6.370;2022-10-16T11:32:31;10.60;;;2.30;;
52508;SDS011;38420;53.150;6.370;2022-10-16T11:35:08;14.68;;;2.15;;
52508;SDS011;38420;53.150;6.370;2022-10-16T11:37:43;11.23;;;2.30;;
52508;SDS011;38420;53.150;6.370;2022-10-16T11:40:20;10.82;;;2.58;;
52508;SDS011;38420;53.150;6.370;2022-10-16T11:42:51;13.93;;;2.20;;
52508;SDS011;38420;53.150;6.370;2022-10-16T11:45:28;11.20;;;2.30;;
52508;SDS011;38420;53.150;6.370;2022-10-16T11:50:53;18.77;;;3.03;;
52508;SDS011;38420;53.150;6.370;2022-10-16T11:53:42;12.95;;;2.20;;
52508;SDS011;38420;53.150;6.370;2022-10-16T11:56:46;10.32;;;2.40;;
52508;SDS011;38420;53.150;6.370;2022-10-16T11:59:23;11.63;;;2.13;;
52508;SDS011;38420;53.150;6.370;2022-10-16T12:05:01;11.48;;;3.05;;
52508;SDS011;38420;53.150;6.370;2022-10-16T12:07:36;12.38;;;2.45;;
52508;SDS011;38420;53.150;6.370;2022-10-16T12:10:10;15.60;;;2.13;;
52508;SDS011;38420;53.150;6.370;2022-10-16T12:12:44;17.90;;;2.80;;
52508;SDS011;38420;53.150;6.370;2022-10-16T12:17:51;12.73;;;2.17;;
52508;SDS011;38420;53.150;6.370;2022-10-16T12:25:22;10.20;;;1.75;;
52508;SDS011;38420;53.150;6.370;2022-10-16T12:27:55;14.88;;;2.97;;
52508;SDS011;38420;53.150;6.370;2022-10-16T12:30:30;18.30;;;2.88;;
52508;SDS011;38420;53.150;6.370;2022-10-16T12:33:19;12.60;;;2.15;;
52508;SDS011;38420;53.150;6.370;2022-10-16T12:35:52;10.40;;;1.90;;
52508;SDS011;38420;53.150;6.370;2022-10-16T12:41:08;10.95;;;2.75;;
52508;SDS011;38420;53.150;6.370;2022-10-16T12:48:44;12.02;;;2.60;;
52508;SDS011;38420;53.150;6.370;2022-10-16T12:51:25;8.68;;;1.90;;
52508;SDS011;38420;53.150;6.370;2022-10-16T12:54:03;9.45;;;2.28;;
52508;SDS011;38420;53.150;6.370;2022-10-16T13:10:47;15.43;;;2.50;;
52508;SDS011;38420;53.150;6.370;2022-10-16T13:19:08;18.50;;;3.17;;
52508;SDS011;38420;53.150;6.370;2022-10-16T13:26:53;11.60;;;2.47;;
52508;SDS011;38420;53.150;6.370;2022-10-16T13:29:40;9.52;;;1.88;;
52508;SDS011;38420;53.150;6.370;2022-10-16T13:32:07;10.68;;;2.33;;
52508;SDS011;38420;53.150;6.370;2022-10-16T13:34:46;16.13;;;2.42;;
52508;SDS011;38420;53.150;6.370;2022-10-16T13:37:20;11.52;;;2.17;;
52508;SDS011;38420;53.150;6.370;2022-10-16T13:39:50;15.35;;;3.42;;
52508;SDS011;38420;53.150;6.370;2022-10-16T13:42:28;15.73;;;2.80;;
52508;SDS011;38420;53.150;6.370;2022-10-16T13:44:54;17.02;;;3.03;;
52508;SDS011;38420;53.150;6.370;2022-10-16T13:47:24;11.98;;;2.78;;
52508;SDS011;38420;53.150;6.370;2022-10-16T13:50:11;11.40;;;2.42;;
52508;SDS011;38420;53.150;6.370;2022-10-16T13:52:38;12.60;;;2.55;;
52508;SDS011;38420;53.150;6.370;2022-10-16T13:57:36;11.07;;;2.38;;
52508;SDS011;38420;53.150;6.370;2022-10-16T14:00:02;10.48;;;2.78;;
52508;SDS011;38420;53.150;6.370;2022-10-16T14:02:33;12.23;;;2.20;;
52508;SDS011;38420;53.150;6.370;2022-10-16T14:05:02;14.57;;;2.95;;
52508;SDS011;38420;53.150;6.370;2022-10-16T14:07:30;13.80;;;2.78;;
52508;SDS011;38420;53.150;6.370;2022-10-16T14:10:02;13.55;;;2.70;;
52508;SDS011;38420;53.150;6.370;2022-10-16T14:12:30;16.80;;;2.88;;
52508;SDS011;38420;53.150;6.370;2022-10-16T14:14:57;11.73;;;2.20;;
52508;SDS011;38420;53.150;6.370;2022-10-16T14:17:25;12.90;;;2.78;;
52508;SDS011;38420;53.150;6.370;2022-10-16T14:19:58;13.73;;;2.15;;
52508;SDS011;38420;53.150;6.370;2022-10-16T14:22:32;8.60;;;2.35;;
52508;SDS011;38420;53.150;6.370;2022-10-16T14:25:45;15.38;;;2.95;;
52508;SDS011;38420;53.150;6.370;2022-10-16T14:27:58;13.57;;;2.22;;
52508;SDS011;38420;53.150;6.370;2022-10-16T14:30:55;11.93;;;2.75;;
52508;SDS011;38420;53.150;6.370;2022-10-16T14:33:24;8.10;;;2.50;;
52508;SDS011;38420;53.150;6.370;2022-10-16T14:38:35;15.02;;;2.50;;
52508;SDS011;38420;53.150;6.370;2022-10-16T14:41:05;8.15;;;1.98;;
52508;SDS011;38420;53.150;6.370;2022-10-16T14:43:39;15.38;;;3.50;;
52508;SDS011;38420;53.150;6.370;2022-10-16T14:46:09;10.60;;;2.28;;
52508;SDS011;38420;53.150;6.370;2022-10-16T14:48:45;9.95;;;2.15;;
52508;SDS011;38420;53.150;6.370;2022-10-16T14:51:16;16.08;;;2.92;;
52508;SDS011;38420;53.150;6.370;2022-10-16T14:56:14;10.50;;;2.17;;
52508;SDS011;38420;53.150;6.370;2022-10-16T14:58:42;11.20;;;2.38;;
52508;SDS011;38420;53.150;6.370;2022-10-16T15:01:09;11.38;;;2.17;;
52508;SDS011;38420;53.150;6.370;2022-10-16T15:03:36;9.70;;;2.28;;
52508;SDS011;38420;53.150;6.370;2022-10-16T15:06:02;9.70;;;1.90;;
52508;SDS011;38420;53.150;6.370;2022-10-16T15:08:28;8.05;;;2.33;;
52508;SDS011;38420;53.150;6.370;2022-10-16T15:10:54;13.45;;;2.63;;
52508;SDS011;38420;53.150;6.370;2022-10-16T15:13:19;13.10;;;3.05;;
52508;SDS011;38420;53.150;6.370;2022-10-16T15:15:45;9.82;;;2.83;;
52508;SDS011;38420;53.150;6.370;2022-10-16T15:18:12;11.77;;;2.97;;
52508;SDS011;38420;53.150;6.370;2022-10-16T15:20:40;13.68;;;2.60;;
52508;SDS011;38420;53.150;6.370;2022-10-16T15:23:10;13.27;;;2.47;;
52508;SDS011;38420;53.150;6.370;2022-10-16T15:25:43;10.38;;;2.78;;
52508;SDS011;38420;53.150;6.370;2022-10-16T15:28:12;12.50;;;2.75;;
52508;SDS011;38420;53.150;6.370;2022-10-16T15:30:39;15.02;;;2.80;;
52508;SDS011;38420;53.150;6.370;2022-10-16T15:33:05;14.82;;;2.40;;
52508;SDS011;38420;53.150;6.370;2022-10-16T15:35:46;11.68;;;2.30;;
52508;SDS011;38420;53.150;6.370;2022-10-16T15:38:13;11.80;;;3.10;;
52508;SDS011;38420;53.150;6.370;2022-10-16T15:40:40;9.68;;;2.38;;
52508;SDS011;38420;53.150;6.370;2022-10-16T15:43:06;10.50;;;1.92;;
52508;SDS011;38420;53.150;6.370;2022-10-16T15:45:32;10.85;;;2.03;;
52508;SDS011;38420;53.150;6.370;2022-10-16T15:47:58;10.48;;;2.33;;
52508;SDS011;38420;53.150;6.370;2022-10-16T15:50:24;13.13;;;2.80;;
52508;SDS011;38420;53.150;6.370;2022-10-16T15:52:50;16.77;;;3.90;;
52508;SDS011;38420;53.150;6.370;2022-10-16T15:55:16;13.32;;;2.58;;
52508;SDS011;38420;53.150;6.370;2022-10-16T15:57:43;13.45;;;2.58;;
52508;SDS011;38420;53.150;6.370;2022-10-16T16:00:14;11.65;;;2.38;;
52508;SDS011;38420;53.150;6.370;2022-10-16T16:02:42;9.73;;;2.20;;
52508;SDS011;38420;53.150;6.370;2022-10-16T16:05:09;9.70;;;2.05;;
52508;SDS011;38420;53.150;6.370;2022-10-16T16:07:36;14.32;;;2.85;;
52508;SDS011;38420;53.150;6.370;2022-10-16T16:10:03;13.77;;;2.40;;
52508;SDS011;38420;53.150;6.370;2022-10-16T16:12:30;10.43;;;2.10;;
52508;SDS011;38420;53.150;6.370;2022-10-16T16:14:56;12.20;;;2.55;;
52508;SDS011;38420;53.150;6.370;2022-10-16T16:17:22;12.93;;;2.53;;
52508;SDS011;38420;53.150;6.370;2022-10-16T16:19:49;8.18;;;2.42;;
52508;SDS011;38420;53.150;6.370;2022-10-16T16:22:15;12.15;;;2.63;;
52508;SDS011;38420;53.150;6.370;2022-10-16T16:24:40;9.52;;;1.90;;
52508;SDS011;38420;53.150;6.370;2022-10-16T16:27:06;13.05;;;2.30;;
52508;SDS011;38420;53.150;6.370;2022-10-16T16:29:32;12.20;;;2.10;;
52508;SDS011;38420;53.150;6.370;2022-10-16T16:31:58;12.07;;;2.85;;
52508;SDS011;38420;53.150;6.370;2022-10-16T16:34:25;13.32;;;3.03;;
52508;SDS011;38420;53.150;6.370;2022-10-16T16:36:54;11.32;;;2.08;;
52508;SDS011;38420;53.150;6.370;2022-10-16T16:39:21;8.95;;;1.95;;
52508;SDS011;38420;53.150;6.370;2022-10-16T16:41:47;9.18;;;3.15;;
52508;SDS011;38420;53.150;6.370;2022-10-16T16:44:12;12.70;;;2.63;;
52508;SDS011;38420;53.150;6.370;2022-10-16T16:46:39;11.05;;;2.78;;
52508;SDS011;38420;53.150;6.370;2022-10-16T16:49:08;12.20;;;2.60;;
52508;SDS011;38420;53.150;6.370;2022-10-16T16:51:38;11.70;;;2.60;;